Time;durP1;ratioP1;P1;durP2;ratioP2;P2;SDS_P1;SDS_P2;PMS_P1;PMS_P2;Temp;Humidity;BMP_temperature;BMP_pressure;BME280_temperature;BME280_humidity;BME280_pressure;Samples;Min_cycle;Max_cycle;Signal;HPM_P1;HPM_P2
2022/11/19 00:00:49;;;;;;;;;;;17.40;40.30;;;;;;5076608;28;19920;-70
2022/11/19 00:03:16;;;;;;;;;;;17.40;40.30;;;;;;5094693;28;19973;-71
2022/11/19 00:05:43;;;;;;;;;;;17.30;41.10;;;;;;5094928;28;19992;-71
2022/11/19 00:08:09;;;;;;;;;;;17.30;40.30;;;;;;5094611;28;19973;-71
2022/11/19 00:10:36;;;;;;;;;;;17.30;40.40;;;;;;5094687;28;19921;-70
2022/11/19 00:13:02;;;;;;;;;;;17.30;40.40;;;;;;5076418;28;19931;-71
2022/11/19 00:15:27;;;;;;;;;;;17.30;40.30;;;;;;5094554;28;20291;-71
2022/11/19 00:17:53;;;;;;;;;;;17.20;40.20;;;;;;5094363;28;19924;-71
2022/11/19 00:20:19;;;;;;;;;;;17.30;40.20;;;;;;5094585;28;19927;-71
2022/11/19 00:22:49;;;;;;;;;;;17.10;40.20;;;;;;5094461;28;19920;-72
2022/11/19 00:25:14;;;;;;;;;;;17.00;40.50;;;;;;5076439;28;19967;-71
2022/11/19 00:27:40;;;;;;;;;;;16.90;40.70;;;;;;5076759;28;19955;-69
2022/11/19 00:30:06;;;;;;;;;;;17.00;40.70;;;;;;5094355;28;19920;-71
2022/11/19 00:32:32;;;;;;;;;;;17.00;40.60;;;;;;5094438;28;19973;-72
2022/11/19 00:34:57;;;;;;;;;;;16.90;40.50;;;;;;5076012;28;19920;-71
2022/11/19 00:37:23;;;;;;;;;;;17.00;40.50;;;;;;5094066;28;19932;-72
2022/11/19 00:39:48;;;;;;;;;;;16.90;40.50;;;;;;5076216;28;19923;-72
2022/11/19 00:42:14;;;;;;;;;;;16.90;40.50;;;;;;5075838;28;19955;-72
2022/11/19 00:44:39;;;;;;;;;;;16.90;40.40;;;;;;5075710;28;19920;-72
2022/11/19 00:47:05;;;;;;;;;;;16.90;40.30;;;;;;5093733;28;19924;-69
2022/11/19 00:49:30;;;;;;;;;;;16.90;40.50;;;;;;5075673;28;20376;-71
2022/11/19 00:51:56;;;;;;;;;;;17.60;41.00;;;;;;5075719;28;19963;-72
2022/11/19 00:54:21;;;;;;;;;;;16.80;40.50;;;;;;5094087;28;19924;-72
2022/11/19 00:56:47;;;;;;;;;;;16.80;40.40;;;;;;5093846;28;19920;-72
2022/11/19 00:59:12;;;;;;;;;;;16.80;40.60;;;;;;5075407;28;20391;-71
2022/11/19 01:01:38;;;;;;;;;;;16.80;40.60;;;;;;5074791;28;20062;-69
2022/11/19 01:04:05;;;;;;;;;;;16.80;40.60;;;;;;5075387;28;19927;-69
2022/11/19 01:06:31;;;;;;;;;;;16.70;40.50;;;;;;5093410;28;19935;-71
2022/11/19 01:08:57;;;;;;;;;;;16.70;40.50;;;;;;5075619;28;19924;-71
2022/11/19 01:11:24;;;;;;;;;;;16.70;40.50;;;;;;5093399;28;20445;-69
2022/11/19 01:13:49;;;;;;;;;;;16.80;40.60;;;;;;5075219;28;19921;-71
2022/11/19 01:16:17;;;;;;;;;;;16.70;40.40;;;;;;5075102;28;19999;-71
2022/11/19 01:18:44;;;;;;;;;;;16.70;40.30;;;;;;5074841;28;20330;-71
2022/11/19 01:21:10;;;;;;;;;;;16.60;40.50;;;;;;5074937;28;19920;-71
2022/11/19 01:23:36;;;;;;;;;;;16.60;40.40;;;;;;5074987;28;19927;-71
2022/11/19 01:26:02;;;;;;;;;;;16.50;40.40;;;;;;5074969;28;19923;-69
2022/11/19 01:28:28;;;;;;;;;;;16.50;40.50;;;;;;5074987;28;19927;-71
2022/11/19 01:30:53;;;;;;;;;;;16.40;40.50;;;;;;5075110;28;19920;-71
2022/11/19 01:33:21;;;;;;;;;;;16.40;40.50;;;;;;5074839;28;19920;-71
2022/11/19 01:36:03;;;;;;;;;;;16.40;40.60;;;;;;5092935;28;19927;-71
2022/11/19 01:38:29;;;;;;;;;;;16.30;40.70;;;;;;5074799;28;19974;-70
2022/11/19 01:40:56;;;;;;;;;;;16.30;40.70;;;;;;5074300;28;19943;-71
2022/11/19 01:43:41;;;;;;;;;;;16.40;40.70;;;;;;5074880;28;19920;-69
2022/11/19 01:46:07;;;;;;;;;;;16.30;40.70;;;;;;5074437;28;20372;-72
2022/11/19 01:48:35;;;;;;;;;;;16.30;40.50;;;;;;5075000;28;20011;-71
2022/11/19 01:51:03;;;;;;;;;;;16.20;40.60;;;;;;5092824;28;19926;-71
2022/11/19 01:53:30;;;;;;;;;;;16.30;40.80;;;;;;5092681;28;20010;-71
2022/11/19 01:56:02;;;;;;;;;;;16.30;40.70;;;;;;5092722;28;19920;-71
2022/11/19 01:58:29;;;;;;;;;;;16.40;40.60;;;;;;5074395;28;19963;-71
2022/11/19 02:00:55;;;;;;;;;;;16.30;40.40;;;;;;5074793;28;19921;-71
2022/11/19 02:03:20;;;;;;;;;;;16.30;40.50;;;;;;5092552;28;19920;-72
2022/11/19 02:05:46;;;;;;;;;;;16.40;40.60;;;;;;5074952;28;19964;-71
2022/11/19 02:08:31;;;;;;;;;;;16.30;40.60;;;;;;5074688;28;19931;-71
2022/11/19 02:11:03;;;;;;;;;;;16.20;40.50;;;;;;5092243;28;20395;-71
2022/11/19 02:13:35;;;;;;;;;;;16.20;40.30;;;;;;5092434;28;19926;-72
2022/11/19 02:16:05;;;;;;;;;;;16.10;40.30;;;;;;5074495;28;19928;-71
2022/11/19 02:18:51;;;;;;;;;;;16.10;40.30;;;;;;5070552;28;20003;-72
2022/11/19 02:21:26;;;;;;;;;;;16.00;40.40;;;;;;5071013;28;19928;-71
2022/11/19 02:24:11;;;;;;;;;;;16.00;40.40;;;;;;5072270;28;20306;-69
2022/11/19 02:32:13;;;;;;;;;;;16.00;40.40;;;;;;5089955;28;19913;-69
2022/11/19 02:34:45;;;;;;;;;;;16.10;40.50;;;;;;5088581;28;19946;-72
2022/11/19 02:37:14;;;;;;;;;;;16.00;40.50;;;;;;5088590;28;19924;-72
2022/11/19 02:39:49;;;;;;;;;;;15.90;40.40;;;;;;5088748;28;19928;-72
2022/11/19 02:42:17;;;;;;;;;;;15.90;40.40;;;;;;5105464;28;19921;-72
2022/11/19 02:45:01;;;;;;;;;;;15.90;40.30;;;;;;5088634;28;19924;-72
2022/11/19 02:47:37;;;;;;;;;;;15.90;40.30;;;;;;5089842;28;20340;-70
2022/11/19 02:50:08;;;;;;;;;;;15.90;40.40;;;;;;5088205;28;19924;-71
2022/11/19 02:52:34;;;;;;;;;;;15.90;40.40;;;;;;5089493;28;19920;-69
2022/11/19 02:55:00;;;;;;;;;;;15.80;40.30;;;;;;5089376;28;19920;-72
2022/11/19 02:57:25;;;;;;;;;;;15.80;40.20;;;;;;5089420;28;20376;-69
2022/11/19 03:05:30;;;;;;;;;;;15.80;41.20;;;;;;5087919;28;19924;-70
2022/11/19 03:07:56;;;;;;;;;;;15.70;40.20;;;;;;5088067;28;19924;-72
2022/11/19 03:10:24;;;;;;;;;;;15.70;40.20;;;;;;5087988;28;19948;-70
2022/11/19 03:12:55;;;;;;;;;;;15.70;40.10;;;;;;5089179;28;19920;-71
2022/11/19 03:24:22;;;;;;;;;;;15.70;39.90;;;;;;5089888;28;20287;-72
2022/11/19 03:29:31;;;;;;;;;;;15.70;40.00;;;;;;5089885;28;19913;-72
2022/11/19 03:31:59;;;;;;;;;;;15.40;39.70;;;;;;5088531;28;19927;-72
2022/11/19 03:34:27;;;;;;;;;;;15.60;39.70;;;;;;5088727;28;20006;-72
2022/11/19 03:36:54;;;;;;;;;;;15.60;39.80;;;;;;5088715;28;20030;-72
2022/11/19 03:39:21;;;;;;;;;;;15.70;40.00;;;;;;5089747;28;19924;-72
2022/11/19 03:41:47;;;;;;;;;;;15.60;39.90;;;;;;5088307;28;19920;-72
2022/11/19 03:44:32;;;;;;;;;;;15.60;39.80;;;;;;5088378;28;19979;-70
2022/11/19 03:47:00;;;;;;;;;;;15.60;39.80;;;;;;5088143;28;19920;-72
2022/11/19 03:49:30;;;;;;;;;;;15.60;39.60;;;;;;5088307;28;19967;-71
2022/11/19 03:51:58;;;;;;;;;;;15.50;39.70;;;;;;5088204;28;19927;-72
2022/11/19 03:54:24;;;;;;;;;;;15.50;39.70;;;;;;5088261;28;19928;-72
2022/11/19 03:56:50;;;;;;;;;;;15.50;39.60;;;;;;5088223;28;19924;-71
2022/11/19 03:59:15;;;;;;;;;;;15.50;39.60;;;;;;5088379;28;20049;-70
2022/11/19 04:01:42;;;;;;;;;;;15.50;39.60;;;;;;5089354;28;20287;-71
2022/11/19 04:04:39;;;;;;;;;;;15.50;39.50;;;;;;5088064;28;19921;-71
2022/11/19 04:06:53;;;;;;;;;;;15.50;39.40;;;;;;5088987;28;19921;-71
2022/11/19 04:09:19;;;;;;;;;;;15.40;39.40;;;;;;5087831;28;19948;-71
2022/11/19 04:11:44;;;;;;;;;;;15.40;39.30;;;;;;5089348;28;19927;-70
2022/11/19 04:14:10;;;;;;;;;;;15.40;39.30;;;;;;5088251;28;19931;-70
2022/11/19 04:16:35;;;;;;;;;;;15.40;39.30;;;;;;5087757;28;20402;-70
2022/11/19 04:19:01;;;;;;;;;;;15.40;39.20;;;;;;5087680;28;19974;-71
2022/11/19 04:21:26;;;;;;;;;;;15.40;39.20;;;;;;5087704;28;19920;-69
2022/11/19 04:23:52;;;;;;;;;;;15.40;39.10;;;;;;5087947;28;19924;-70
2022/11/19 04:26:17;;;;;;;;;;;15.40;39.20;;;;;;5087842;28;19927;-70
2022/11/19 04:28:43;;;;;;;;;;;15.30;39.00;;;;;;5087228;28;19970;-71
2022/11/19 04:31:08;;;;;;;;;;;15.30;39.00;;;;;;5087493;28;19973;-70
2022/11/19 04:33:34;;;;;;;;;;;15.30;39.00;;;;;;5087643;28;19928;-69
2022/11/19 04:35:59;;;;;;;;;;;15.30;39.20;;;;;;5087357;28;19946;-70
2022/11/19 04:38:25;;;;;;;;;;;15.30;39.10;;;;;;5088741;28;19974;-70
2022/11/19 04:40:50;;;;;;;;;;;15.30;39.20;;;;;;5073841;28;19981;-70
2022/11/19 04:43:16;;;;;;;;;;;15.30;39.10;;;;;;5073716;28;20425;-71
2022/11/19 04:45:41;;;;;;;;;;;15.30;39.10;;;;;;5073703;28;19921;-71
2022/11/19 04:48:07;;;;;;;;;;;15.30;39.20;;;;;;5073603;28;20011;-70
2022/11/19 04:50:32;;;;;;;;;;;15.30;39.10;;;;;;5073636;28;19920;-70
2022/11/19 04:52:58;;;;;;;;;;;15.30;39.10;;;;;;5075029;28;19955;-71
2022/11/19 04:55:23;;;;;;;;;;;15.30;39.20;;;;;;5073878;28;20288;-71
2022/11/19 04:57:50;;;;;;;;;;;15.30;39.20;;;;;;5074843;28;19926;-71
2022/11/19 05:00:16;;;;;;;;;;;15.30;39.10;;;;;;5073510;28;19920;-70
2022/11/19 05:02:42;;;;;;;;;;;15.30;39.20;;;;;;5073362;28;19966;-71
2022/11/19 05:05:07;;;;;;;;;;;15.20;39.10;;;;;;5074635;28;19924;-71
2022/11/19 05:07:36;;;;;;;;;;;15.30;39.00;;;;;;5073195;28;19978;-70
2022/11/19 05:10:02;;;;;;;;;;;15.20;38.80;;;;;;5090487;28;19927;-71
2022/11/19 05:12:27;;;;;;;;;;;15.30;38.90;;;;;;5073326;28;20296;-71
2022/11/19 05:14:53;;;;;;;;;;;15.30;38.80;;;;;;5073418;28;19920;-71
2022/11/19 05:17:18;;;;;;;;;;;15.20;38.80;;;;;;5074450;28;20346;-71
2022/11/19 05:19:44;;;;;;;;;;;15.20;38.90;;;;;;5073327;28;20438;-71
2022/11/19 05:22:09;;;;;;;;;;;15.20;38.70;;;;;;5073320;28;20439;-71
2022/11/19 05:24:35;;;;;;;;;;;15.20;38.60;;;;;;5073345;28;19924;-71
2022/11/19 05:27:00;;;;;;;;;;;15.20;38.70;;;;;;5072741;28;19931;-70
2022/11/19 05:29:26;;;;;;;;;;;15.20;38.60;;;;;;5076165;28;19952;-71
2022/11/19 05:31:51;;;;;;;;;;;15.20;38.70;;;;;;5076180;28;19920;-71
2022/11/19 05:34:17;;;;;;;;;;;15.30;38.80;;;;;;5094277;28;19927;-71
2022/11/19 05:36:42;;;;;;;;;;;15.20;38.90;;;;;;5094212;28;20341;-71
2022/11/19 05:39:08;;;;;;;;;;;15.10;38.80;;;;;;5093733;28;19924;-71
2022/11/19 05:41:33;;;;;;;;;;;15.20;38.80;;;;;;5093989;28;19920;-71
2022/11/19 05:43:59;;;;;;;;;;;15.20;38.80;;;;;;5076157;28;19970;-71
2022/11/19 05:46:24;;;;;;;;;;;15.20;38.80;;;;;;5075951;28;20007;-71
2022/11/19 05:48:50;;;;;;;;;;;15.20;38.90;;;;;;5076052;28;19923;-71
2022/11/19 05:51:16;;;;;;;;;;;15.20;38.90;;;;;;5074821;28;20006;-71
2022/11/19 05:53:41;;;;;;;;;;;15.20;38.80;;;;;;5075710;28;19924;-70
2022/11/19 05:56:07;;;;;;;;;;;15.10;38.80;;;;;;5075656;28;19924;-70
2022/11/19 05:58:32;;;;;;;;;;;15.20;38.90;;;;;;5093813;28;19965;-71
2022/11/19 06:00:58;;;;;;;;;;;15.10;38.70;;;;;;5076008;28;19972;-70
2022/11/19 06:03:24;;;;;;;;;;;15.10;38.80;;;;;;5093782;28;19943;-71
2022/11/19 06:05:50;;;;;;;;;;;15.00;38.80;;;;;;5075767;28;20410;-71
2022/11/19 06:08:15;;;;;;;;;;;15.10;38.90;;;;;;5075568;28;20023;-70
2022/11/19 06:10:41;;;;;;;;;;;15.10;39.00;;;;;;5075675;28;19932;-70
2022/11/19 06:13:06;;;;;;;;;;;15.20;38.90;;;;;;5093957;28;19920;-71
2022/11/19 06:15:32;;;;;;;;;;;15.10;38.90;;;;;;5075229;28;20329;-71
2022/11/19 06:17:57;;;;;;;;;;;15.10;38.80;;;;;;5075319;28;19920;-71
2022/11/19 06:20:23;;;;;;;;;;;15.10;38.80;;;;;;5075389;28;19920;-71
2022/11/19 06:22:48;;;;;;;;;;;15.10;38.60;;;;;;5075122;28;19920;-71
2022/11/19 06:25:14;;;;;;;;;;;15.10;38.60;;;;;;5075090;28;19923;-71
2022/11/19 06:27:39;;;;;;;;;;;15.10;38.70;;;;;;5074740;28;19935;-71
2022/11/19 06:30:06;;;;;;;;;;;15.10;38.80;;;;;;5093344;28;19920;-71
2022/11/19 06:32:31;;;;;;;;;;;15.10;38.70;;;;;;5075280;28;19920;-71
2022/11/19 06:34:57;;;;;;;;;;;15.00;38.80;;;;;;5074955;28;20296;-71
2022/11/19 06:37:22;;;;;;;;;;;15.00;38.70;;;;;;5075154;28;19975;-71
2022/11/19 06:39:48;;;;;;;;;;;15.00;38.70;;;;;;5074835;28;19999;-71
2022/11/19 06:42:36;;;;;;;;;;;15.00;38.60;;;;;;5075032;28;19924;-71
2022/11/19 06:44:59;;;;;;;;;;;15.00;38.70;;;;;;5092757;28;19920;-71
2022/11/19 06:47:24;;;;;;;;;;;15.00;38.70;;;;;;5074633;28;19924;-71
2022/11/19 06:49:50;;;;;;;;;;;15.00;38.70;;;;;;5074724;28;19936;-71
2022/11/19 06:52:15;;;;;;;;;;;15.00;38.70;;;;;;5074562;28;20031;-71
2022/11/19 06:54:41;;;;;;;;;;;15.00;38.60;;;;;;5092968;28;19920;-71
2022/11/19 06:57:06;;;;;;;;;;;15.00;38.60;;;;;;5074608;28;19927;-71
2022/11/19 06:59:33;;;;;;;;;;;15.00;38.70;;;;;;5074969;28;19920;-71
2022/11/19 07:01:59;;;;;;;;;;;15.00;38.70;;;;;;5074304;28;19966;-71
2022/11/19 07:04:24;;;;;;;;;;;15.00;38.70;;;;;;5074542;28;20016;-71
2022/11/19 07:06:50;;;;;;;;;;;14.90;38.50;;;;;;5074400;28;19970;-71
2022/11/19 07:09:16;;;;;;;;;;;14.90;38.50;;;;;;5074338;28;19993;-71
2022/11/19 07:11:42;;;;;;;;;;;14.90;38.40;;;;;;5074710;28;19920;-71
2022/11/19 07:14:07;;;;;;;;;;;15.00;38.50;;;;;;5074763;28;20022;-71
2022/11/19 07:16:34;;;;;;;;;;;15.00;38.40;;;;;;5074815;28;19927;-71
2022/11/19 07:19:00;;;;;;;;;;;14.40;38.00;;;;;;5074264;28;19920;-71
2022/11/19 07:21:27;;;;;;;;;;;14.90;38.20;;;;;;5074362;28;20014;-71
2022/11/19 07:23:53;;;;;;;;;;;14.90;38.30;;;;;;5092340;28;19928;-71
2022/11/19 07:26:18;;;;;;;;;;;14.80;38.30;;;;;;5074421;28;19968;-71
2022/11/19 07:28:44;;;;;;;;;;;14.90;38.30;;;;;;5073899;28;19927;-71
2022/11/19 07:31:09;;;;;;;;;;;14.80;38.20;;;;;;5074262;28;19927;-71
2022/11/19 07:33:37;;;;;;;;;;;14.90;38.20;;;;;;5074225;28;19920;-71
2022/11/19 07:36:04;;;;;;;;;;;14.80;38.20;;;;;;5092337;28;20283;-71
2022/11/19 07:38:30;;;;;;;;;;;14.90;38.30;;;;;;5074126;28;19946;-71
2022/11/19 07:40:56;;;;;;;;;;;14.80;38.20;;;;;;5092552;28;20023;-71
2022/11/19 07:43:21;;;;;;;;;;;14.90;38.20;;;;;;5074110;28;20371;-72
2022/11/19 07:45:47;;;;;;;;;;;14.90;38.10;;;;;;5074183;28;19920;-71
2022/11/19 07:48:13;;;;;;;;;;;14.80;38.10;;;;;;5092226;28;19930;-71
2022/11/19 07:50:39;;;;;;;;;;;14.80;38.00;;;;;;5074185;28;19963;-71
2022/11/19 07:53:05;;;;;;;;;;;14.80;38.00;;;;;;5074346;28;20369;-71
2022/11/19 07:55:31;;;;;;;;;;;14.80;38.20;;;;;;5074014;28;20003;-72
2022/11/19 07:57:57;;;;;;;;;;;14.60;38.00;;;;;;5074368;28;19923;-70
2022/11/19 08:00:23;;;;;;;;;;;14.80;38.00;;;;;;5074230;28;19924;-71
2022/11/19 08:02:49;;;;;;;;;;;14.80;38.00;;;;;;5073480;28;19939;-71
2022/11/19 08:05:14;;;;;;;;;;;14.80;38.00;;;;;;5091954;28;20276;-71
2022/11/19 08:07:40;;;;;;;;;;;14.80;37.80;;;;;;5074024;28;19928;-66
2022/11/19 08:10:06;;;;;;;;;;;14.80;37.80;;;;;;5091877;28;19920;-70
2022/11/19 08:12:32;;;;;;;;;;;14.80;37.90;;;;;;5073427;28;19920;-70
2022/11/19 08:14:58;;;;;;;;;;;14.80;38.00;;;;;;5074537;28;19944;-71
2022/11/19 08:20:09;;;;;;;;;;;14.80;38.10;;;;;;5059223;28;19920;-65
2022/11/19 08:22:35;;;;;;;;;;;14.80;38.40;;;;;;5075489;28;20398;-72
2022/11/19 08:25:02;;;;;;;;;;;14.90;38.50;;;;;;5075492;28;19935;-71
2022/11/19 08:27:27;;;;;;;;;;;15.00;38.50;;;;;;5076513;28;19957;-75
2022/11/19 08:29:53;;;;;;;;;;;15.20;38.50;;;;;;5076470;28;20014;-69
2022/11/19 08:32:18;;;;;;;;;;;15.60;38.20;;;;;;5095034;28;20010;-70
2022/11/19 08:34:44;;;;;;;;;;;15.90;37.70;;;;;;5094989;28;20402;-67
2022/11/19 08:37:12;;;;;;;;;;;16.40;37.10;;;;;;5094954;28;20042;-70
2022/11/19 08:39:39;;;;;;;;;;;16.80;36.50;;;;;;5076869;28;19920;-71
2022/11/19 08:44:50;;;;;;;;;;;17.70;35.30;;;;;;5076142;28;19973;-70
2022/11/19 08:47:16;;;;;;;;;;;18.20;34.50;;;;;;5077299;28;19967;-68
2022/11/19 08:49:41;;;;;;;;;;;18.60;33.80;;;;;;5076680;28;19920;-70
2022/11/19 08:52:07;;;;;;;;;;;19.10;33.50;;;;;;5077146;28;20291;-71
2022/11/19 08:54:32;;;;;;;;;;;19.50;32.90;;;;;;5095274;28;20002;-72
2022/11/19 08:56:58;;;;;;;;;;;19.80;32.20;;;;;;5076303;28;19921;-80
2022/11/19 08:59:23;;;;;;;;;;;20.10;32.10;;;;;;5076310;28;19924;-78
2022/11/19 09:01:49;;;;;;;;;;;20.70;31.60;;;;;;5076856;28;19998;-70
2022/11/19 09:04:15;;;;;;;;;;;20.90;31.10;;;;;;5093774;28;19919;-69
2022/11/19 09:06:41;;;;;;;;;;;21.10;30.80;;;;;;5094613;28;20471;-78
2022/11/19 09:09:07;;;;;;;;;;;21.20;30.50;;;;;;5076341;28;19931;-79
2022/11/19 09:11:33;;;;;;;;;;;21.30;30.40;;;;;;5076030;28;19920;-77
2022/11/19 09:13:59;;;;;;;;;;;21.50;30.30;;;;;;5076530;28;19928;-77
2022/11/19 09:16:25;;;;;;;;;;;21.80;30.00;;;;;;5076442;28;20380;-78
2022/11/19 09:18:51;;;;;;;;;;;22.00;30.00;;;;;;5075718;28;19927;-74
2022/11/19 09:21:16;;;;;;;;;;;22.20;29.60;;;;;;5092530;28;20344;-74
2022/11/19 09:23:42;;;;;;;;;;;22.50;29.50;;;;;;5074487;28;19998;-71
2022/11/19 09:26:09;;;;;;;;;;;22.50;29.10;;;;;;5075750;28;19920;-71
2022/11/19 09:28:35;;;;;;;;;;;22.50;29.20;;;;;;5075433;28;19924;-71
2022/11/19 09:31:03;;;;;;;;;;;22.40;29.20;;;;;;5075832;28;19978;-70
2022/11/19 09:33:30;;;;;;;;;;;22.30;29.50;;;;;;5075072;28;20371;-66
2022/11/19 09:35:59;;;;;;;;;;;22.10;29.60;;;;;;5076408;28;19920;-69
2022/11/19 09:38:25;;;;;;;;;;;22.00;29.80;;;;;;5093877;28;19934;-70
2022/11/19 09:40:51;;;;;;;;;;;21.80;29.90;;;;;;5075968;28;19927;-71
2022/11/19 09:46:09;;;;;;;;;;;21.50;30.20;;;;;;5113944;27;1959632;-69
2022/11/19 09:48:36;;;;;;;;;;;21.20;30.40;;;;;;5144985;27;20271;-68
2022/11/19 09:51:04;;;;;;;;;;;21.00;30.70;;;;;;5137248;27;20275;-68
2022/11/19 09:53:33;;;;;;;;;;;20.80;30.70;;;;;;5140124;27;20000;-72
2022/11/19 09:55:59;;;;;;;;;;;20.70;30.90;;;;;;5152839;27;19950;-66
2022/11/19 09:58:30;;;;;;;;;;;20.60;31.10;;;;;;5152238;27;19923;-75
2022/11/19 10:00:55;;;;;;;;;;;20.50;31.10;;;;;;5133804;27;20255;-73
2022/11/19 10:03:22;;;;;;;;;;;20.30;31.30;;;;;;5134545;27;20259;-72
2022/11/19 10:09:02;;;;;;;;;;;20.00;31.60;;;;;;5127559;27;1861285;-73
2022/11/19 10:17:19;;;;;;;;;;;19.50;32.00;;;;;;5089095;28;19923;-67
2022/11/19 10:19:53;;;;;;;;;;;19.40;32.20;;;;;;5088010;28;20014;-71
2022/11/19 10:25:14;;;;;;;;;;;19.20;32.50;;;;;;5089497;28;19912;-67
2022/11/19 10:30:23;;;;;;;;;;;18.90;32.50;;;;;;5088392;28;19912;-66
2022/11/19 10:35:37;;;;;;;;;;;18.70;33.10;;;;;;5110195;27;19937;-68
2022/11/19 10:38:06;;;;;;;;;;;18.60;33.20;;;;;;5108822;28;19920;-71
2022/11/19 10:40:35;;;;;;;;;;;18.50;33.40;;;;;;5108479;28;20254;-66
2022/11/19 10:43:09;;;;;;;;;;;18.40;33.40;;;;;;5142933;27;19930;-66
2022/11/19 10:45:35;;;;;;;;;;;18.30;33.60;;;;;;5107849;28;19920;-66
2022/11/19 10:50:41;;;;;;;;;;;18.10;33.60;;;;;;5109032;27;1853991;-69
2022/11/19 10:53:14;;;;;;;;;;;18.00;33.60;;;;;;5174243;27;19918;-69
2022/11/19 10:55:41;;;;;;;;;;;17.90;33.80;;;;;;5158173;27;19932;-70
2022/11/19 11:00:53;;;;;;;;;;;17.70;33.80;;;;;;5109971;27;19940;-69
2022/11/19 11:03:24;;;;;;;;;;;17.60;33.80;;;;;;5092045;28;20030;-70
2022/11/19 11:05:54;;;;;;;;;;;17.50;33.90;;;;;;5091959;28;19959;-70
2022/11/19 11:08:20;;;;;;;;;;;17.40;34.00;;;;;;5091892;28;19924;-69
2022/11/19 11:10:45;;;;;;;;;;;17.30;34.20;;;;;;5091650;28;19920;-70
2022/11/19 11:16:11;;;;;;;;;;;17.10;34.40;;;;;;5091484;28;19998;-70
2022/11/19 11:18:39;;;;;;;;;;;17.00;34.50;;;;;;5091699;28;19923;-71
2022/11/19 11:21:06;;;;;;;;;;;16.90;34.60;;;;;;5091857;28;19944;-70
2022/11/19 11:23:32;;;;;;;;;;;16.80;34.80;;;;;;5091949;28;19946;-70
2022/11/19 11:26:07;;;;;;;;;;;16.70;34.90;;;;;;5091739;28;20372;-70
2022/11/19 11:28:33;;;;;;;;;;;16.60;35.00;;;;;;5109814;28;19924;-70
2022/11/19 11:33:39;;;;;;;;;;;15.80;34.90;;;;;;5110191;27;20401;-70
2022/11/19 11:38:46;;;;;;;;;;;16.30;35.40;;;;;;5089973;28;19918;-70
2022/11/19 11:41:15;;;;;;;;;;;16.30;35.50;;;;;;5088854;28;19955;-70
2022/11/19 11:44:00;;;;;;;;;;;16.20;35.40;;;;;;5105530;28;19973;-69
2022/11/19 11:46:33;;;;;;;;;;;16.10;35.50;;;;;;5088678;28;20006;-70
2022/11/19 11:48:59;;;;;;;;;;;16.00;35.70;;;;;;5088481;28;19975;-69
2022/11/19 11:51:26;;;;;;;;;;;15.90;35.60;;;;;;5088383;28;19925;-69
2022/11/19 11:54:12;;;;;;;;;;;15.80;35.60;;;;;;5088348;28;19927;-69
2022/11/19 11:56:37;;;;;;;;;;;15.80;35.70;;;;;;5088049;28;19943;-69
2022/11/19 11:59:23;;;;;;;;;;;15.70;35.80;;;;;;5105197;28;20015;-69
2022/11/19 12:01:53;;;;;;;;;;;15.60;36.00;;;;;;5089323;28;19920;-70
2022/11/19 12:04:19;;;;;;;;;;;15.60;36.10;;;;;;5088194;28;20407;-69
2022/11/19 12:06:51;;;;;;;;;;;15.50;36.20;;;;;;5089416;28;19920;-70
2022/11/19 12:09:22;;;;;;;;;;;15.50;36.00;;;;;;5088465;28;19982;-69
2022/11/19 12:11:54;;;;;;;;;;;15.40;36.10;;;;;;5089418;28;19962;-69
2022/11/19 12:14:38;;;;;;;;;;;15.40;36.00;;;;;;5088306;28;19921;-69
2022/11/19 12:17:24;;;;;;;;;;;15.40;36.10;;;;;;5087760;28;20061;-69
2022/11/19 12:20:02;;;;;;;;;;;15.30;36.00;;;;;;5088902;28;19921;-69
2022/11/19 12:22:47;;;;;;;;;;;15.30;36.10;;;;;;5088059;28;20411;-69
2022/11/19 12:25:19;;;;;;;;;;;15.30;36.30;;;;;;5087949;28;19927;-69
2022/11/19 12:27:52;;;;;;;;;;;15.20;36.50;;;;;;5089004;28;19920;-69
2022/11/19 12:30:19;;;;;;;;;;;15.20;36.50;;;;;;5088983;28;19930;-69
2022/11/19 12:35:33;;;;;;;;;;;15.30;36.60;;;;;;5129408;27;1870923;-70
2022/11/19 12:38:11;;;;;;;;;;;15.20;36.50;;;;;;5174689;27;19919;-70
2022/11/19 12:40:43;;;;;;;;;;;15.20;36.50;;;;;;5174665;27;19954;-69
2022/11/19 12:48:54;;;;;;;;;;;15.10;36.60;;;;;;5089959;28;19912;-70
2022/11/19 12:51:40;;;;;;;;;;;15.10;36.70;;;;;;5088589;28;19927;-69
2022/11/19 12:54:25;;;;;;;;;;;15.10;36.90;;;;;;5088274;28;19921;-69
2022/11/19 12:57:00;;;;;;;;;;;15.10;36.90;;;;;;5088318;28;19920;-69
2022/11/19 13:02:13;;;;;;;;;;;15.10;36.90;;;;;;5128018;27;1851983;-69
2022/11/19 13:04:45;;;;;;;;;;;15.10;36.90;;;;;;5174717;27;19923;-70
2022/11/19 13:07:15;;;;;;;;;;;15.10;36.90;;;;;;5174490;27;20355;-69
2022/11/19 13:09:43;;;;;;;;;;;15.00;36.70;;;;;;5174522;27;19919;-69
2022/11/19 13:12:13;;;;;;;;;;;15.00;36.70;;;;;;5174256;27;19923;-69
2022/11/19 13:14:39;;;;;;;;;;;15.00;36.80;;;;;;5174105;27;20412;-69
2022/11/19 13:17:11;;;;;;;;;;;15.00;36.90;;;;;;5174421;27;20369;-69
2022/11/19 13:19:38;;;;;;;;;;;15.00;36.90;;;;;;5174015;27;19962;-69
2022/11/19 13:22:23;;;;;;;;;;;15.00;37.00;;;;;;5174016;27;20005;-69
2022/11/19 13:24:53;;;;;;;;;;;14.90;37.00;;;;;;5174110;27;20263;-69
2022/11/19 13:27:21;;;;;;;;;;;14.90;37.20;;;;;;5173918;27;20309;-69
2022/11/19 13:29:49;;;;;;;;;;;14.90;37.40;;;;;;5174226;27;20278;-69
2022/11/19 13:32:21;;;;;;;;;;;14.90;37.50;;;;;;5173896;27;20381;-70
2022/11/19 13:34:55;;;;;;;;;;;14.80;37.50;;;;;;5173805;27;20334;-69
2022/11/19 13:37:33;;;;;;;;;;;14.80;37.60;;;;;;5192678;27;19919;-69
2022/11/19 13:40:01;;;;;;;;;;;14.80;37.70;;;;;;5173536;27;19930;-69
2022/11/19 13:45:16;;;;;;;;;;;14.90;37.80;;;;;;5160123;27;19919;-69
2022/11/19 13:47:54;;;;;;;;;;;14.80;37.70;;;;;;5171407;27;19919;-69
2022/11/19 13:50:22;;;;;;;;;;;14.80;37.70;;;;;;5152560;27;19926;-69
2022/11/19 13:52:55;;;;;;;;;;;14.90;37.60;;;;;;5152925;27;20332;-69
2022/11/19 13:58:15;;;;;;;;;;;15.00;37.60;;;;;;5089968;28;20418;-69
2022/11/19 14:00:52;;;;;;;;;;;15.00;37.60;;;;;;5088802;28;19924;-69
2022/11/19 14:03:25;;;;;;;;;;;15.00;37.60;;;;;;5088902;28;19920;-69
2022/11/19 14:28:45;;;;;;;;;;;14.70;37.80;;;;;;5108767;28;19920;-69
2022/11/19 14:31:11;;;;;;;;;;;14.80;38.00;;;;;;5108936;28;19920;-69
2022/11/19 14:33:56;;;;;;;;;;;14.80;38.00;;;;;;5108859;28;19927;-70
2022/11/19 14:36:29;;;;;;;;;;;14.80;38.00;;;;;;5108945;28;20375;-69
2022/11/19 14:38:55;;;;;;;;;;;14.80;38.10;;;;;;5109004;28;19920;-69
2022/11/19 14:41:26;;;;;;;;;;;14.70;38.20;;;;;;5108652;28;19928;-69
2022/11/19 14:44:12;;;;;;;;;;;14.80;38.20;;;;;;5108809;28;19927;-69
2022/11/19 14:46:40;;;;;;;;;;;14.80;38.20;;;;;;5109645;28;19965;-69
2022/11/19 14:49:21;;;;;;;;;;;14.80;38.20;;;;;;5108823;28;20428;-69
2022/11/19 14:51:50;;;;;;;;;;;14.80;38.20;;;;;;5108383;28;20011;-69
2022/11/19 14:54:36;;;;;;;;;;;14.80;38.20;;;;;;5108774;28;19924;-69
2022/11/19 14:57:04;;;;;;;;;;;14.80;38.20;;;;;;5108385;28;19987;-69
2022/11/19 14:59:31;;;;;;;;;;;14.80;38.20;;;;;;5108316;28;19927;-69
2022/11/19 15:04:47;;;;;;;;;;;14.80;38.30;;;;;;5110354;27;20286;-69
2022/11/19 15:07:16;;;;;;;;;;;14.80;38.30;;;;;;5091997;28;19974;-69
2022/11/19 15:09:50;;;;;;;;;;;14.80;38.30;;;;;;5092255;28;19967;-69
2022/11/19 15:12:17;;;;;;;;;;;14.80;38.40;;;;;;5091765;28;19970;-69
2022/11/19 15:15:03;;;;;;;;;;;14.80;38.40;;;;;;5091925;28;19924;-70
2022/11/19 15:17:29;;;;;;;;;;;14.80;38.50;;;;;;5091792;28;19951;-69
2022/11/19 15:20:06;;;;;;;;;;;14.80;38.50;;;;;;5091706;28;20349;-69
2022/11/19 15:25:20;;;;;;;;;;;14.80;38.60;;;;;;5129733;27;1861477;-69
2022/11/19 15:38:42;;;;;;;;;;;14.90;38.60;;;;;;5128148;27;1849731;-69
2022/11/19 15:41:12;;;;;;;;;;;14.90;38.60;;;;;;5174332;27;19919;-69
2022/11/19 15:43:41;;;;;;;;;;;14.90;38.60;;;;;;5174602;27;19922;-69
2022/11/19 15:46:11;;;;;;;;;;;14.90;38.60;;;;;;5174321;27;19919;-69
2022/11/19 15:48:41;;;;;;;;;;;14.90;38.70;;;;;;5174804;27;19925;-70
2022/11/19 15:51:11;;;;;;;;;;;14.90;38.70;;;;;;5174253;27;19926;-69
2022/11/19 15:53:36;;;;;;;;;;;14.90;38.70;;;;;;5174438;27;19919;-68
2022/11/19 15:56:04;;;;;;;;;;;14.80;38.70;;;;;;5174150;27;19929;-69
2022/11/19 15:58:39;;;;;;;;;;;14.90;38.70;;;;;;5174066;27;19933;-69
2022/11/19 16:01:06;;;;;;;;;;;14.90;39.50;;;;;;5174115;27;20373;-69
2022/11/19 16:03:32;;;;;;;;;;;14.90;38.70;;;;;;5173940;27;19923;-69
2022/11/19 16:05:59;;;;;;;;;;;14.90;38.70;;;;;;5173971;27;19919;-69
2022/11/19 16:08:26;;;;;;;;;;;14.90;38.80;;;;;;5173983;27;20005;-69
2022/11/19 16:17:31;;;;;;;;;;;14.80;38.80;;;;;;5173737;27;20381;-69
2022/11/19 16:19:13;;;;;;;;;;;14.80;38.80;;;;;;5173714;27;20390;-69
2022/11/19 16:21:40;;;;;;;;;;;14.80;38.80;;;;;;5192436;27;20374;-69
2022/11/19 16:26:55;;;;;;;;;;;14.80;38.90;;;;;;5173288;27;20401;-69
2022/11/19 16:29:22;;;;;;;;;;;14.80;38.90;;;;;;5173562;27;19966;-69